sensor_id;sensor_type;location;lat;lon;timestamp;P1;durP1;ratioP1;P2;durP2;ratioP2
35380;SDS011;21486;51.916;8.378;2022-12-17T00:00:45;152.82;;;59.17;;
35380;SDS011;21486;51.916;8.378;2022-12-17T00:03:29;155.05;;;60.08;;
35380;SDS011;21486;51.916;8.378;2022-12-17T00:06:14;125.95;;;57.67;;
35380;SDS011;21486;51.916;8.378;2022-12-17T00:08:59;115.28;;;56.22;;
35380;SDS011;21486;51.916;8.378;2022-12-17T00:11:43;153.37;;;54.63;;
35380;SDS011;21486;51.916;8.378;2022-12-17T00:14:27;118.17;;;55.97;;
35380;SDS011;21486;51.916;8.378;2022-12-17T00:17:11;113.00;;;55.08;;
35380;SDS011;21486;51.916;8.378;2022-12-17T00:19:55;107.72;;;52.55;;
35380;SDS011;21486;51.916;8.378;2022-12-17T00:22:40;120.07;;;52.80;;
35380;SDS011;21486;51.916;8.378;2022-12-17T00:25:24;135.93;;;54.35;;
35380;SDS011;21486;51.916;8.378;2022-12-17T00:28:08;122.65;;;56.08;;
35380;SDS011;21486;51.916;8.378;2022-12-17T00:30:54;106.60;;;54.03;;
35380;SDS011;21486;51.916;8.378;2022-12-17T00:33:38;115.18;;;55.17;;
35380;SDS011;21486;51.916;8.378;2022-12-17T00:36:22;106.10;;;51.28;;
35380;SDS011;21486;51.916;8.378;2022-12-17T00:39:07;138.57;;;50.97;;
35380;SDS011;21486;51.916;8.378;2022-12-17T00:41:51;114.07;;;52.88;;
35380;SDS011;21486;51.916;8.378;2022-12-17T00:44:35;198.15;;;50.58;;
35380;SDS011;21486;51.916;8.378;2022-12-17T00:47:19;211.18;;;51.83;;
35380;SDS011;21486;51.916;8.378;2022-12-17T00:50:03;248.35;;;53.50;;
35380;SDS011;21486;51.916;8.378;2022-12-17T00:52:50;183.60;;;51.03;;
35380;SDS011;21486;51.916;8.378;2022-12-17T00:55:35;282.77;;;57.00;;
35380;SDS011;21486;51.916;8.378;2022-12-17T00:58:19;243.98;;;53.25;;
35380;SDS011;21486;51.916;8.378;2022-12-17T01:01:03;173.20;;;53.03;;
35380;SDS011;21486;51.916;8.378;2022-12-17T01:03:47;236.02;;;54.55;;
35380;SDS011;21486;51.916;8.378;2022-12-17T01:06:31;126.97;;;51.00;;
35380;SDS011;21486;51.916;8.378;2022-12-17T01:09:15;128.45;;;46.13;;
35380;SDS011;21486;51.916;8.378;2022-12-17T01:11:59;167.07;;;45.10;;
35380;SDS011;21486;51.916;8.378;2022-12-17T01:14:44;166.40;;;45.75;;
35380;SDS011;21486;51.916;8.378;2022-12-17T01:17:28;126.57;;;46.05;;
35380;SDS011;21486;51.916;8.378;2022-12-17T01:20:12;115.25;;;44.72;;
35380;SDS011;21486;51.916;8.378;2022-12-17T01:22:56;108.93;;;44.43;;
35380;SDS011;21486;51.916;8.378;2022-12-17T01:25:40;120.80;;;46.25;;
35380;SDS011;21486;51.916;8.378;2022-12-17T01:28:24;111.57;;;44.47;;
35380;SDS011;21486;51.916;8.378;2022-12-17T01:31:09;94.20;;;44.70;;
35380;SDS011;21486;51.916;8.378;2022-12-17T01:33:55;87.80;;;43.38;;
35380;SDS011;21486;51.916;8.378;2022-12-17T01:36:39;109.95;;;43.42;;
35380;SDS011;21486;51.916;8.378;2022-12-17T01:39:24;96.75;;;44.35;;
35380;SDS011;21486;51.916;8.378;2022-12-17T01:42:11;128.25;;;44.60;;
35380;SDS011;21486;51.916;8.378;2022-12-17T01:44:55;195.75;;;44.63;;
35380;SDS011;21486;51.916;8.378;2022-12-17T01:47:45;132.27;;;44.50;;
35380;SDS011;21486;51.916;8.378;2022-12-17T01:50:38;200.10;;;47.00;;
35380;SDS011;21486;51.916;8.378;2022-12-17T01:53:36;105.07;;;45.22;;
35380;SDS011;21486;51.916;8.378;2022-12-17T01:56:23;141.00;;;45.80;;
35380;SDS011;21486;51.916;8.378;2022-12-17T01:59:08;103.82;;;43.28;;
35380;SDS011;21486;51.916;8.378;2022-12-17T02:01:54;142.35;;;42.97;;
35380;SDS011;21486;51.916;8.378;2022-12-17T02:04:38;174.40;;;45.03;;
35380;SDS011;21486;51.916;8.378;2022-12-17T02:10:53;161.68;;;42.40;;
35380;SDS011;21486;51.916;8.378;2022-12-17T02:13:50;154.75;;;41.53;;
35380;SDS011;21486;51.916;8.378;2022-12-17T02:16:48;133.00;;;40.60;;
35380;SDS011;21486;51.916;8.378;2022-12-17T02:19:44;155.55;;;40.45;;
35380;SDS011;21486;51.916;8.378;2022-12-17T02:23:09;101.15;;;41.53;;
35380;SDS011;21486;51.916;8.378;2022-12-17T02:26:07;84.13;;;39.88;;
35380;SDS011;21486;51.916;8.378;2022-12-17T02:28:56;69.43;;;38.20;;
35380;SDS011;21486;51.916;8.378;2022-12-17T02:31:49;73.50;;;36.97;;
35380;SDS011;21486;51.916;8.378;2022-12-17T02:34:42;77.18;;;35.85;;
35380;SDS011;21486;51.916;8.378;2022-12-17T02:37:30;71.28;;;34.97;;
35380;SDS011;21486;51.916;8.378;2022-12-17T02:40:15;76.80;;;35.67;;
35380;SDS011;21486;51.916;8.378;2022-12-17T02:43:02;71.40;;;34.60;;
35380;SDS011;21486;51.916;8.378;2022-12-17T02:45:46;78.07;;;36.03;;
35380;SDS011;21486;51.916;8.378;2022-12-17T02:48:32;79.82;;;37.58;;
35380;SDS011;21486;51.916;8.378;2022-12-17T02:51:17;73.23;;;35.17;;
35380;SDS011;21486;51.916;8.378;2022-12-17T02:54:02;66.50;;;34.58;;
35380;SDS011;21486;51.916;8.378;2022-12-17T02:56:51;75.18;;;36.78;;
35380;SDS011;21486;51.916;8.378;2022-12-17T02:59:35;94.68;;;35.75;;
35380;SDS011;21486;51.916;8.378;2022-12-17T03:02:19;127.55;;;38.75;;
35380;SDS011;21486;51.916;8.378;2022-12-17T03:05:04;340.83;;;44.55;;
35380;SDS011;21486;51.916;8.378;2022-12-17T03:07:48;376.25;;;45.97;;
35380;SDS011;21486;51.916;8.378;2022-12-17T03:10:32;459.30;;;52.07;;
35380;SDS011;21486;51.916;8.378;2022-12-17T03:13:23;241.90;;;47.72;;
35380;SDS011;21486;51.916;8.378;2022-12-17T03:16:12;263.60;;;45.72;;
35380;SDS011;21486;51.916;8.378;2022-12-17T03:18:58;199.37;;;44.33;;
35380;SDS011;21486;51.916;8.378;2022-12-17T03:21:43;233.10;;;45.10;;
35380;SDS011;21486;51.916;8.378;2022-12-17T03:24:27;186.15;;;45.28;;
35380;SDS011;21486;51.916;8.378;2022-12-17T03:27:11;118.93;;;41.83;;
35380;SDS011;21486;51.916;8.378;2022-12-17T03:29:56;203.80;;;44.30;;
35380;SDS011;21486;51.916;8.378;2022-12-17T03:32:40;210.18;;;44.70;;
35380;SDS011;21486;51.916;8.378;2022-12-17T03:35:24;100.07;;;38.93;;
35380;SDS011;21486;51.916;8.378;2022-12-17T03:38:09;136.13;;;43.90;;
35380;SDS011;21486;51.916;8.378;2022-12-17T03:40:54;297.17;;;49.33;;
35380;SDS011;21486;51.916;8.378;2022-12-17T03:43:39;146.17;;;45.10;;
35380;SDS011;21486;51.916;8.378;2022-12-17T03:46:23;268.85;;;49.55;;
35380;SDS011;21486;51.916;8.378;2022-12-17T03:49:08;231.57;;;51.20;;
35380;SDS011;21486;51.916;8.378;2022-12-17T03:51:52;153.43;;;48.47;;
35380;SDS011;21486;51.916;8.378;2022-12-17T03:54:36;322.73;;;53.03;;
35380;SDS011;21486;51.916;8.378;2022-12-17T03:57:20;332.98;;;52.35;;
35380;SDS011;21486;51.916;8.378;2022-12-17T04:00:04;236.10;;;48.95;;
35380;SDS011;21486;51.916;8.378;2022-12-17T04:02:49;248.93;;;48.72;;
35380;SDS011;21486;51.916;8.378;2022-12-17T04:05:33;147.93;;;47.70;;
35380;SDS011;21486;51.916;8.378;2022-12-17T04:08:17;125.35;;;46.22;;
35380;SDS011;21486;51.916;8.378;2022-12-17T04:11:01;217.23;;;46.22;;
35380;SDS011;21486;51.916;8.378;2022-12-17T04:13:45;238.60;;;46.13;;
35380;SDS011;21486;51.916;8.378;2022-12-17T04:16:30;421.33;;;49.90;;
35380;SDS011;21486;51.916;8.378;2022-12-17T04:19:14;335.55;;;48.55;;
35380;SDS011;21486;51.916;8.378;2022-12-17T04:21:58;335.90;;;53.40;;
35380;SDS011;21486;51.916;8.378;2022-12-17T04:24:42;248.57;;;51.75;;
35380;SDS011;21486;51.916;8.378;2022-12-17T04:27:26;197.57;;;49.28;;
35380;SDS011;21486;51.916;8.378;2022-12-17T04:30:10;337.75;;;53.08;;
35380;SDS011;21486;51.916;8.378;2022-12-17T04:32:54;181.65;;;47.28;;
35380;SDS011;21486;51.916;8.378;2022-12-17T04:35:38;189.23;;;47.67;;
35380;SDS011;21486;51.916;8.378;2022-12-17T04:38:22;334.30;;;52.28;;
35380;SDS011;21486;51.916;8.378;2022-12-17T04:41:06;379.55;;;50.90;;
35380;SDS011;21486;51.916;8.378;2022-12-17T04:43:50;231.30;;;48.90;;
35380;SDS011;21486;51.916;8.378;2022-12-17T04:46:34;203.98;;;45.03;;
35380;SDS011;21486;51.916;8.378;2022-12-17T04:49:19;265.77;;;48.08;;
35380;SDS011;21486;51.916;8.378;2022-12-17T04:52:03;215.63;;;48.40;;
35380;SDS011;21486;51.916;8.378;2022-12-17T04:54:47;157.25;;;46.95;;
35380;SDS011;21486;51.916;8.378;2022-12-17T04:57:31;254.05;;;45.33;;
35380;SDS011;21486;51.916;8.378;2022-12-17T05:00:15;262.77;;;42.28;;
35380;SDS011;21486;51.916;8.378;2022-12-17T05:03:04;171.55;;;41.55;;
35380;SDS011;21486;51.916;8.378;2022-12-17T05:05:48;207.27;;;41.03;;
35380;SDS011;21486;51.916;8.378;2022-12-17T05:08:32;85.97;;;37.28;;
35380;SDS011;21486;51.916;8.378;2022-12-17T05:11:16;130.00;;;35.88;;
35380;SDS011;21486;51.916;8.378;2022-12-17T05:14:01;181.07;;;37.87;;
35380;SDS011;21486;51.916;8.378;2022-12-17T05:16:45;74.57;;;34.05;;
35380;SDS011;21486;51.916;8.378;2022-12-17T05:19:29;126.65;;;34.72;;
35380;SDS011;21486;51.916;8.378;2022-12-17T05:22:13;159.93;;;33.75;;
35380;SDS011;21486;51.916;8.378;2022-12-17T05:24:57;121.07;;;33.23;;
35380;SDS011;21486;51.916;8.378;2022-12-17T05:27:41;98.63;;;32.83;;
35380;SDS011;21486;51.916;8.378;2022-12-17T05:30:25;103.75;;;34.60;;
35380;SDS011;21486;51.916;8.378;2022-12-17T05:33:09;186.88;;;53.50;;
35380;SDS011;21486;51.916;8.378;2022-12-17T05:35:53;140.93;;;34.65;;
35380;SDS011;21486;51.916;8.378;2022-12-17T05:38:41;134.27;;;40.38;;
35380;SDS011;21486;51.916;8.378;2022-12-17T05:41:25;83.45;;;35.10;;
35380;SDS011;21486;51.916;8.378;2022-12-17T05:44:09;89.38;;;33.88;;
35380;SDS011;21486;51.916;8.378;2022-12-17T05:46:53;88.95;;;38.67;;
35380;SDS011;21486;51.916;8.378;2022-12-17T05:49:37;73.55;;;34.90;;
35380;SDS011;21486;51.916;8.378;2022-12-17T05:52:21;91.00;;;30.60;;
35380;SDS011;21486;51.916;8.378;2022-12-17T05:55:05;116.75;;;33.08;;
35380;SDS011;21486;51.916;8.378;2022-12-17T05:57:50;183.45;;;36.13;;
35380;SDS011;21486;51.916;8.378;2022-12-17T06:00:34;82.13;;;33.83;;
35380;SDS011;21486;51.916;8.378;2022-12-17T06:03:18;85.65;;;33.03;;
35380;SDS011;21486;51.916;8.378;2022-12-17T06:06:02;74.80;;;32.23;;
35380;SDS011;21486;51.916;8.378;2022-12-17T06:08:46;79.57;;;32.35;;
35380;SDS011;21486;51.916;8.378;2022-12-17T06:11:30;64.03;;;32.08;;
35380;SDS011;21486;51.916;8.378;2022-12-17T06:14:14;76.13;;;33.10;;
35380;SDS011;21486;51.916;8.378;2022-12-17T06:16:59;79.15;;;32.92;;
35380;SDS011;21486;51.916;8.378;2022-12-17T06:19:43;71.00;;;32.50;;
35380;SDS011;21486;51.916;8.378;2022-12-17T06:22:27;100.97;;;34.47;;
35380;SDS011;21486;51.916;8.378;2022-12-17T06:25:11;97.03;;;35.08;;
35380;SDS011;21486;51.916;8.378;2022-12-17T06:27:59;108.85;;;35.00;;
35380;SDS011;21486;51.916;8.378;2022-12-17T06:30:50;72.65;;;32.85;;
35380;SDS011;21486;51.916;8.378;2022-12-17T06:33:36;70.28;;;33.05;;
35380;SDS011;21486;51.916;8.378;2022-12-17T06:36:21;85.88;;;31.95;;
35380;SDS011;21486;51.916;8.378;2022-12-17T06:39:05;117.00;;;34.10;;
35380;SDS011;21486;51.916;8.378;2022-12-17T06:41:49;107.97;;;34.27;;
35380;SDS011;21486;51.916;8.378;2022-12-17T06:44:34;78.10;;;32.10;;
35380;SDS011;21486;51.916;8.378;2022-12-17T06:47:18;127.13;;;34.70;;
35380;SDS011;21486;51.916;8.378;2022-12-17T06:50:02;76.65;;;33.42;;
35380;SDS011;21486;51.916;8.378;2022-12-17T06:52:47;74.20;;;34.27;;
35380;SDS011;21486;51.916;8.378;2022-12-17T06:55:49;62.33;;;31.63;;
35380;SDS011;21486;51.916;8.378;2022-12-17T06:58:35;62.15;;;31.48;;
35380;SDS011;21486;51.916;8.378;2022-12-17T07:01:19;68.20;;;30.83;;
35380;SDS011;21486;51.916;8.378;2022-12-17T07:04:03;67.20;;;32.13;;
35380;SDS011;21486;51.916;8.378;2022-12-17T07:06:47;75.82;;;31.45;;
35380;SDS011;21486;51.916;8.378;2022-12-17T07:09:32;68.63;;;33.17;;
35380;SDS011;21486;51.916;8.378;2022-12-17T07:12:16;88.90;;;37.50;;
35380;SDS011;21486;51.916;8.378;2022-12-17T07:15:00;79.03;;;35.15;;
35380;SDS011;21486;51.916;8.378;2022-12-17T07:17:57;79.30;;;36.17;;
35380;SDS011;21486;51.916;8.378;2022-12-17T07:20:43;77.40;;;36.40;;
35380;SDS011;21486;51.916;8.378;2022-12-17T07:23:28;89.28;;;39.33;;
35380;SDS011;21486;51.916;8.378;2022-12-17T07:26:13;128.80;;;41.45;;
35380;SDS011;21486;51.916;8.378;2022-12-17T07:28:57;84.05;;;37.30;;
35380;SDS011;21486;51.916;8.378;2022-12-17T07:31:42;83.75;;;37.65;;
35380;SDS011;21486;51.916;8.378;2022-12-17T07:34:26;90.97;;;36.88;;
35380;SDS011;21486;51.916;8.378;2022-12-17T07:37:10;78.22;;;37.58;;
35380;SDS011;21486;51.916;8.378;2022-12-17T07:39:54;78.47;;;37.07;;
35380;SDS011;21486;51.916;8.378;2022-12-17T07:42:38;128.40;;;40.58;;
35380;SDS011;21486;51.916;8.378;2022-12-17T07:45:23;149.00;;;43.27;;
35380;SDS011;21486;51.916;8.378;2022-12-17T07:48:07;116.22;;;43.67;;
35380;SDS011;21486;51.916;8.378;2022-12-17T07:50:51;173.57;;;43.80;;
35380;SDS011;21486;51.916;8.378;2022-12-17T07:53:36;98.05;;;39.58;;
35380;SDS011;21486;51.916;8.378;2022-12-17T07:56:20;99.20;;;38.88;;
35380;SDS011;21486;51.916;8.378;2022-12-17T07:59:04;81.97;;;37.75;;
35380;SDS011;21486;51.916;8.378;2022-12-17T08:01:48;85.30;;;36.30;;
35380;SDS011;21486;51.916;8.378;2022-12-17T08:04:32;74.50;;;36.10;;
35380;SDS011;21486;51.916;8.378;2022-12-17T08:07:16;97.38;;;39.65;;
35380;SDS011;21486;51.916;8.378;2022-12-17T08:10:00;96.15;;;42.00;;
35380;SDS011;21486;51.916;8.378;2022-12-17T08:12:54;108.70;;;42.60;;
35380;SDS011;21486;51.916;8.378;2022-12-17T08:15:38;99.23;;;42.60;;
35380;SDS011;21486;51.916;8.378;2022-12-17T08:18:22;103.57;;;42.08;;
35380;SDS011;21486;51.916;8.378;2022-12-17T08:21:06;87.63;;;42.72;;
35380;SDS011;21486;51.916;8.378;2022-12-17T08:23:50;90.73;;;41.33;;
35380;SDS011;21486;51.916;8.378;2022-12-17T08:26:34;83.65;;;40.15;;
35380;SDS011;21486;51.916;8.378;2022-12-17T08:29:18;87.80;;;38.80;;
35380;SDS011;21486;51.916;8.378;2022-12-17T08:32:10;83.05;;;39.30;;
35380;SDS011;21486;51.916;8.378;2022-12-17T08:34:54;82.25;;;40.20;;
35380;SDS011;21486;51.916;8.378;2022-12-17T08:37:38;87.57;;;41.92;;
35380;SDS011;21486;51.916;8.378;2022-12-17T08:40:22;87.35;;;43.10;;
35380;SDS011;21486;51.916;8.378;2022-12-17T08:43:06;90.97;;;42.90;;
35380;SDS011;21486;51.916;8.378;2022-12-17T08:45:50;86.37;;;41.87;;
35380;SDS011;21486;51.916;8.378;2022-12-17T08:48:35;88.03;;;40.53;;
35380;SDS011;21486;51.916;8.378;2022-12-17T08:51:20;90.07;;;42.55;;
35380;SDS011;21486;51.916;8.378;2022-12-17T08:54:05;98.97;;;44.63;;
35380;SDS011;21486;51.916;8.378;2022-12-17T08:56:49;95.60;;;44.50;;
35380;SDS011;21486;51.916;8.378;2022-12-17T08:59:34;94.93;;;44.80;;
35380;SDS011;21486;51.916;8.378;2022-12-17T09:02:18;91.17;;;43.70;;
35380;SDS011;21486;51.916;8.378;2022-12-17T09:05:02;90.07;;;43.70;;
35380;SDS011;21486;51.916;8.378;2022-12-17T09:07:46;91.00;;;40.47;;
35380;SDS011;21486;51.916;8.378;2022-12-17T09:10:30;102.75;;;41.85;;
35380;SDS011;21486;51.916;8.378;2022-12-17T09:13:14;88.57;;;44.50;;
35380;SDS011;21486;51.916;8.378;2022-12-17T09:15:59;99.40;;;47.33;;
35380;SDS011;21486;51.916;8.378;2022-12-17T09:18:43;93.00;;;42.07;;
35380;SDS011;21486;51.916;8.378;2022-12-17T09:21:28;83.82;;;40.90;;
35380;SDS011;21486;51.916;8.378;2022-12-17T09:24:27;91.72;;;42.47;;
35380;SDS011;21486;51.916;8.378;2022-12-17T09:27:11;86.40;;;40.37;;
35380;SDS011;21486;51.916;8.378;2022-12-17T09:29:55;93.20;;;41.83;;
35380;SDS011;21486;51.916;8.378;2022-12-17T09:32:39;81.88;;;39.47;;
35380;SDS011;21486;51.916;8.378;2022-12-17T09:35:24;85.40;;;39.50;;
35380;SDS011;21486;51.916;8.378;2022-12-17T09:38:10;84.35;;;39.35;;
35380;SDS011;21486;51.916;8.378;2022-12-17T09:40:55;84.70;;;38.53;;
35380;SDS011;21486;51.916;8.378;2022-12-17T09:43:49;102.15;;;42.47;;
35380;SDS011;21486;51.916;8.378;2022-12-17T09:50:15;91.93;;;41.17;;
35380;SDS011;21486;51.916;8.378;2022-12-17T09:53:01;79.65;;;40.13;;
35380;SDS011;21486;51.916;8.378;2022-12-17T09:56:04;98.38;;;44.10;;
35380;SDS011;21486;51.916;8.378;2022-12-17T09:58:49;98.30;;;41.92;;
35380;SDS011;21486;51.916;8.378;2022-12-17T10:01:34;95.93;;;42.70;;
35380;SDS011;21486;51.916;8.378;2022-12-17T10:04:39;84.80;;;41.33;;
35380;SDS011;21486;51.916;8.378;2022-12-17T10:07:33;81.40;;;39.85;;
35380;SDS011;21486;51.916;8.378;2022-12-17T10:10:21;81.83;;;40.67;;
35380;SDS011;21486;51.916;8.378;2022-12-17T10:13:12;90.25;;;41.22;;
35380;SDS011;21486;51.916;8.378;2022-12-17T10:15:57;85.68;;;43.20;;
35380;SDS011;21486;51.916;8.378;2022-12-17T10:18:42;84.22;;;40.83;;
35380;SDS011;21486;51.916;8.378;2022-12-17T10:21:27;75.57;;;39.20;;
35380;SDS011;21486;51.916;8.378;2022-12-17T10:24:11;73.35;;;38.78;;
35380;SDS011;21486;51.916;8.378;2022-12-17T10:26:55;83.05;;;40.22;;
35380;SDS011;21486;51.916;8.378;2022-12-17T10:29:40;73.28;;;37.15;;
35380;SDS011;21486;51.916;8.378;2022-12-17T10:32:26;81.30;;;37.08;;
35380;SDS011;21486;51.916;8.378;2022-12-17T10:35:24;80.38;;;37.83;;
35380;SDS011;21486;51.916;8.378;2022-12-17T10:41:16;78.65;;;39.10;;
35380;SDS011;21486;51.916;8.378;2022-12-17T10:44:22;90.68;;;46.35;;
35380;SDS011;21486;51.916;8.378;2022-12-17T10:47:15;80.05;;;39.65;;
35380;SDS011;21486;51.916;8.378;2022-12-17T10:50:16;80.53;;;40.28;;
35380;SDS011;21486;51.916;8.378;2022-12-17T10:53:14;90.95;;;43.67;;
35380;SDS011;21486;51.916;8.378;2022-12-17T10:56:06;73.53;;;39.20;;
35380;SDS011;21486;51.916;8.378;2022-12-17T10:59:11;70.27;;;35.87;;
35380;SDS011;21486;51.916;8.378;2022-12-17T11:02:08;69.38;;;36.80;;
35380;SDS011;21486;51.916;8.378;2022-12-17T11:05:01;68.00;;;36.13;;
35380;SDS011;21486;51.916;8.378;2022-12-17T11:07:46;69.57;;;37.35;;
35380;SDS011;21486;51.916;8.378;2022-12-17T11:10:31;71.13;;;37.35;;
35380;SDS011;21486;51.916;8.378;2022-12-17T11:13:32;73.30;;;37.78;;
35380;SDS011;21486;51.916;8.378;2022-12-17T11:16:23;70.25;;;36.53;;
35380;SDS011;21486;51.916;8.378;2022-12-17T11:22:00;63.85;;;35.38;;
35380;SDS011;21486;51.916;8.378;2022-12-17T11:24:55;66.07;;;35.63;;
35380;SDS011;21486;51.916;8.378;2022-12-17T11:27:42;68.10;;;36.10;;
35380;SDS011;21486;51.916;8.378;2022-12-17T11:30:31;69.30;;;35.65;;
35380;SDS011;21486;51.916;8.378;2022-12-17T11:33:23;66.50;;;36.87;;
35380;SDS011;21486;51.916;8.378;2022-12-17T11:39:20;67.05;;;36.70;;
35380;SDS011;21486;51.916;8.378;2022-12-17T11:45:50;69.70;;;37.75;;
35380;SDS011;21486;51.916;8.378;2022-12-17T11:48:59;72.88;;;38.33;;
35380;SDS011;21486;51.916;8.378;2022-12-17T11:54:56;77.00;;;39.85;;
35380;SDS011;21486;51.916;8.378;2022-12-17T11:57:56;75.55;;;39.72;;
35380;SDS011;21486;51.916;8.378;2022-12-17T12:00:52;81.03;;;40.50;;
35380;SDS011;21486;51.916;8.378;2022-12-17T12:06:47;74.60;;;38.20;;
35380;SDS011;21486;51.916;8.378;2022-12-17T12:10:00;79.10;;;39.67;;
35380;SDS011;21486;51.916;8.378;2022-12-17T12:12:50;75.38;;;38.63;;
35380;SDS011;21486;51.916;8.378;2022-12-17T12:19:26;76.78;;;39.83;;
35380;SDS011;21486;51.916;8.378;2022-12-17T12:22:32;79.90;;;42.30;;
35380;SDS011;21486;51.916;8.378;2022-12-17T12:28:48;81.45;;;41.60;;
35380;SDS011;21486;51.916;8.378;2022-12-17T12:31:42;81.70;;;43.05;;
35380;SDS011;21486;51.916;8.378;2022-12-17T12:34:36;83.80;;;42.35;;
35380;SDS011;21486;51.916;8.378;2022-12-17T12:37:21;81.28;;;43.60;;
35380;SDS011;21486;51.916;8.378;2022-12-17T12:49:10;87.57;;;45.83;;
35380;SDS011;21486;51.916;8.378;2022-12-17T12:52:21;89.93;;;47.38;;
35380;SDS011;21486;51.916;8.378;2022-12-17T12:55:08;86.63;;;46.40;;
35380;SDS011;21486;51.916;8.378;2022-12-17T12:57:57;89.30;;;43.13;;
35380;SDS011;21486;51.916;8.378;2022-12-17T13:03:31;87.20;;;43.77;;
35380;SDS011;21486;51.916;8.378;2022-12-17T13:14:29;85.50;;;44.25;;
35380;SDS011;21486;51.916;8.378;2022-12-17T13:17:29;88.32;;;45.88;;
35380;SDS011;21486;51.916;8.378;2022-12-17T13:22:52;95.22;;;48.10;;
35380;SDS011;21486;51.916;8.378;2022-12-17T13:25:29;86.28;;;44.25;;
35380;SDS011;21486;51.916;8.378;2022-12-17T13:27:55;86.85;;;44.45;;
35380;SDS011;21486;51.916;8.378;2022-12-17T13:30:22;89.43;;;45.00;;
35380;SDS011;21486;51.916;8.378;2022-12-17T13:38:42;89.20;;;45.38;;
35380;SDS011;21486;51.916;8.378;2022-12-17T13:41:13;92.13;;;46.03;;
35380;SDS011;21486;51.916;8.378;2022-12-17T13:46:17;96.07;;;46.10;;
35380;SDS011;21486;51.916;8.378;2022-12-17T13:48:52;85.63;;;43.92;;
35380;SDS011;21486;51.916;8.378;2022-12-17T13:51:22;93.30;;;44.75;;
35380;SDS011;21486;51.916;8.378;2022-12-17T13:53:54;91.83;;;44.70;;
35380;SDS011;21486;51.916;8.378;2022-12-17T13:56:22;92.23;;;43.53;;
35380;SDS011;21486;51.916;8.378;2022-12-17T13:58:53;81.55;;;41.15;;
35380;SDS011;21486;51.916;8.378;2022-12-17T14:01:20;87.47;;;43.00;;
35380;SDS011;21486;51.916;8.378;2022-12-17T14:03:50;81.75;;;43.05;;
35380;SDS011;21486;51.916;8.378;2022-12-17T14:06:17;90.00;;;44.28;;
35380;SDS011;21486;51.916;8.378;2022-12-17T14:08:44;95.05;;;45.97;;
35380;SDS011;21486;51.916;8.378;2022-12-17T14:11:11;89.88;;;43.88;;
35380;SDS011;21486;51.916;8.378;2022-12-17T14:13:55;91.65;;;36.58;;
35380;SDS011;21486;51.916;8.378;2022-12-17T14:16:21;81.45;;;34.13;;
35380;SDS011;21486;51.916;8.378;2022-12-17T14:18:54;86.97;;;36.47;;
